KETH Airport Information

Runway Information
Runway 04 Length 1919 ft width 175 ft
Elevation 0 ft Threshold 0 ft Heading 60
Runway 22 Length 1919 ft Width 175 ft
Elevation 0 ft Threshold 0 ft Heading 240
Runway 16 Length 3300 ft width 75 ft
Elevation 1017 ft Threshold 0 ft Heading 164
Runway 34 Length 3300 ft Width 75 ft
Elevation 1022 ft Threshold 0 ft Heading 344
Airport Frequencies
Type AWOS Name AWOS 3 Frequency 32.6 MHZ
Type CNTR Name MINNEAPOLI Frequency 126.1 MHZ
Type CTAF Name CTAF Frequency 122.9 MHZ
Type FSS Name PRINCETON Frequency 122.25 MHZ
Airport Navaids
Airport Weather Information & NOTAM
ADDS - METARS form results

(0858 UTC 05 December 2020)
Data provider http://aviationweather.gov/metar/data/
 
METAR text: KETH 050853Z AUTO 27005KT 10SM M05/M07 A3016 RMK AO2
Conditions at: KETH (WHEATON NDB , MN, US) observed 0853 UTC 05 December 2020
Temperature: -5.0°C (23°F)
Dewpoint: -7.0°C (19°F) [RH = 86%]
Pressure (altimeter): 30.16 inches Hg (1021.4 mb)
Winds: from the W (270 degrees) at 6 MPH (5 knots; 2.6 m/s)
Visibility: 10 or more miles (16+ km)
Ceiling: unknown
Clouds: missing
Weather: automated observation with no human augmentation;
there may or may not be significant weather present at this time

METAR text: KETH 050833Z AUTO 27004KT 10SM M05/M07 A3016 RMK AO2
Conditions at: KETH (WHEATON NDB , MN, US) observed 0833 UTC 05 December 2020
Temperature: -5.0°C (23°F)
Dewpoint: -7.0°C (19°F) [RH = 86%]
Pressure (altimeter): 30.16 inches Hg (1021.4 mb)
Winds: from the W (270 degrees) at 5 MPH (4 knots; 2.1 m/s)
Visibility: 10 or more miles (16+ km)
Ceiling: unknown
Clouds: missing
Weather: automated observation with no human augmentation;
there may or may not be significant weather present at this time

METAR text: KETH 050813Z AUTO 26003KT 10SM M05/M07 A3015 RMK AO2
Conditions at: KETH (WHEATON NDB , MN, US) observed 0813 UTC 05 December 2020
Temperature: -5.0°C (23°F)
Dewpoint: -7.0°C (19°F) [RH = 86%]
Pressure (altimeter): 30.15 inches Hg (1021.1 mb)
Winds: from the W (260 degrees) at 3 MPH (3 knots; 1.5 m/s)
Visibility: 10 or more miles (16+ km)
Ceiling: unknown
Clouds: missing
Weather: automated observation with no human augmentation;
there may or may not be significant weather present at this time